Terminal Aerodrome Forecast
Issued by NWS Portland, OR

Current Version | Previous Version | Text Only | Print | Product List | Glossary On
Versions: 1 2 3 4 5 6 7 8 9 10 11 12 13 14 15 16 17 18 19 20 21 22 23 24 25 26 27 28 29 30 31 32 33 34 35 36 37 38 39 40 41 42 43 44 45 46 47 48 49 50
195
FTUS46 KPQR 132346
TAFPDX
TAF
KPDX 132346Z 1400/1424 15009KT P6SM -RA OVC050
     FM140400 16011KT 6SM -RA BR SCT015 OVC028
     FM140900 20013KT P6SM -RA SCT020 OVC035
     FM142000 21012G20KT P6SM -RA SCT020 OVC035=

USA.gov is the U.S. government's official web portal to all federal, state and local government web resources and services.